Hondo, Texas
Current Conditions -  °F | °C
As of 8:51 PM on Wednesday 26 Nov 2014 (Local Time) from KHDO Reporting Station
Clear Clear  
Wind Chill:   Ceiling: Unl
Heat Index:   Visibility: 10mi
Dew Point: -1°   Wind: 6mph
Humidity: 56%   Direction: 10°N
Pressure: 30.29"   Gusts: NA
Location:  29.35°N, 99.14°W
Report Text: KHDO 270251Z AUTO 01005KT 10SM CLR 08/M01 A3029 RMK AO2 SLP252 T00781006 53023 $
Loading
Personal Weather Stations






























Interactive Weather Map New forecast layout! Learn more

10-Day Weather Forecast

Advertisements
Track Severe Weather on mobile